Time;durP1;ratioP1;P1;durP2;ratioP2;P2;SDS_P1;SDS_P2;PMS_P1;PMS_P2;Temp;Humidity;BMP_temperature;BMP_pressure;BME280_temperature;BME280_humidity;BME280_pressure;Samples;Min_cycle;Max_cycle;Signal;HPM_P1;HPM_P2
2021/03/25 00:02:17;;;;;;;39.07;20.67;;;;;;;;;;5035587;28;20189;-78
2021/03/25 00:04:43;;;;;;;46.50;21.05;;;;;;;;;;5052875;28;20482;-77
2021/03/25 00:07:09;;;;;;;39.00;20.50;;;;;;;;;;5053312;28;20181;-78
2021/03/25 00:09:38;;;;;;;38.38;18.80;;;;;;;;;;5053109;28;20406;-77
2021/03/25 00:12:05;;;;;;;39.42;20.77;;;;;;;;;;5053173;28;20172;-78
2021/03/25 00:14:31;;;;;;;39.47;21.67;;;;;;;;;;5052766;28;20200;-76
2021/03/25 00:16:57;;;;;;;36.93;18.17;;;;;;;;;;5035119;28;20254;-75
2021/03/25 00:19:23;;;;;;;42.97;21.23;;;;;;;;;;5052946;28;20961;-78
2021/03/25 00:21:49;;;;;;;35.33;19.07;;;;;;;;;;5052958;28;20178;-76
2021/03/25 00:24:16;;;;;;;38.92;19.63;;;;;;;;;;5052923;28;20451;-76
2021/03/25 00:26:42;;;;;;;39.92;18.70;;;;;;;;;;5052513;28;20645;-76
2021/03/25 00:29:10;;;;;;;35.53;18.50;;;;;;;;;;5052842;28;20290;-76
2021/03/25 00:31:36;;;;;;;35.53;17.70;;;;;;;;;;5052876;28;20183;-77
2021/03/25 00:34:02;;;;;;;37.60;18.60;;;;;;;;;;5035251;28;20649;-76
2021/03/25 00:36:28;;;;;;;34.70;19.50;;;;;;;;;;5052464;28;20288;-76
2021/03/25 00:38:54;;;;;;;35.77;19.33;;;;;;;;;;5052799;28;20264;-76
2021/03/25 00:41:20;;;;;;;34.25;19.38;;;;;;;;;;5052488;28;20433;-77
2021/03/25 00:43:46;;;;;;;35.92;19.00;;;;;;;;;;5052555;28;20183;-77
2021/03/25 00:46:12;;;;;;;34.30;18.33;;;;;;;;;;5052290;28;20197;-77
2021/03/25 00:48:38;;;;;;;38.38;19.00;;;;;;;;;;5052606;28;20775;-77
2021/03/25 00:51:04;;;;;;;33.80;17.87;;;;;;;;;;5052550;28;20267;-76
2021/03/25 00:53:32;;;;;;;35.80;18.30;;;;;;;;;;5052601;28;20450;-76
2021/03/25 00:55:59;;;;;;;35.33;16.25;;;;;;;;;;5052071;28;20240;-76
2021/03/25 00:58:25;;;;;;;33.80;16.95;;;;;;;;;;5052590;28;20224;-76
2021/03/25 01:00:51;;;;;;;29.38;16.33;;;;;;;;;;5052483;28;20177;-76
2021/03/25 01:03:18;;;;;;;34.80;18.17;;;;;;;;;;5052440;28;20177;-77
2021/03/25 01:05:45;;;;;;;30.80;17.67;;;;;;;;;;5033844;28;20273;-76
2021/03/25 01:08:11;;;;;;;40.38;18.13;;;;;;;;;;5052548;28;20193;-77
2021/03/25 01:10:39;;;;;;;31.58;17.75;;;;;;;;;;5034750;28;20178;-76
2021/03/25 01:13:10;;;;;;;35.80;17.95;;;;;;;;;;5052286;28;20603;-76
2021/03/25 01:15:36;;;;;;;29.55;17.02;;;;;;;;;;5052005;28;20254;-76
2021/03/25 01:18:02;;;;;;;32.95;17.67;;;;;;;;;;5052232;28;20216;-76
2021/03/25 01:20:31;;;;;;;37.72;17.92;;;;;;;;;;5052352;28;20523;-76
2021/03/25 01:22:57;;;;;;;32.38;18.35;;;;;;;;;;5052341;28;20268;-76
2021/03/25 01:25:27;;;;;;;37.78;18.63;;;;;;;;;;5035572;28;20263;-76
2021/03/25 01:27:53;;;;;;;33.38;19.10;;;;;;;;;;5056347;28;20176;-76
2021/03/25 01:30:19;;;;;;;31.88;16.45;;;;;;;;;;5056496;28;20242;-76
2021/03/25 01:32:46;;;;;;;37.88;18.08;;;;;;;;;;5056218;28;20183;-76
2021/03/25 01:35:12;;;;;;;29.52;16.85;;;;;;;;;;5056955;28;20269;-76
2021/03/25 01:37:39;;;;;;;32.55;17.02;;;;;;;;;;5056118;28;20518;-78
2021/03/25 01:40:07;;;;;;;33.67;18.10;;;;;;;;;;5055994;28;20578;-77
2021/03/25 01:42:35;;;;;;;29.70;16.38;;;;;;;;;;5056053;28;20177;-78
2021/03/25 01:45:01;;;;;;;29.17;15.15;;;;;;;;;;5055579;28;20200;-76
2021/03/25 01:47:28;;;;;;;34.70;16.25;;;;;;;;;;5055896;28;20524;-76
2021/03/25 01:49:54;;;;;;;26.02;16.27;;;;;;;;;;5055746;28;20521;-78
2021/03/25 01:52:23;;;;;;;27.20;15.03;;;;;;;;;;5055650;28;20308;-77
2021/03/25 01:54:48;;;;;;;28.88;14.65;;;;;;;;;;5055370;28;20854;-77
2021/03/25 01:57:17;;;;;;;25.67;14.30;;;;;;;;;;5055810;28;20201;-77
2021/03/25 02:00:10;;;;;;;27.42;15.40;;;;;;;;;;5055743;28;20446;-77
2021/03/25 02:02:45;;;;;;;23.27;14.65;;;;;;;;;;5017946;28;20190;-77
2021/03/25 02:05:29;;;;;;;25.65;15.25;;;;;;;;;;5055336;28;20200;-77
2021/03/25 02:08:04;;;;;;;31.45;14.80;;;;;;;;;;5037558;28;20176;-77
2021/03/25 02:10:32;;;;;;;24.80;14.25;;;;;;;;;;5055589;28;20176;-77
2021/03/25 02:13:01;;;;;;;25.85;13.23;;;;;;;;;;5055380;28;20550;-78
2021/03/25 02:15:46;;;;;;;28.00;13.77;;;;;;;;;;5055197;28;20235;-77
2021/03/25 02:18:23;;;;;;;31.15;15.15;;;;;;;;;;5055393;28;20181;-77
2021/03/25 02:21:07;;;;;;;25.60;14.02;;;;;;;;;;5055419;28;20173;-78
2021/03/25 02:23:39;;;;;;;28.23;15.38;;;;;;;;;;5055192;28;20241;-77
2021/03/25 02:26:05;;;;;;;30.92;15.27;;;;;;;;;;5054768;28;20210;-77
2021/03/25 02:28:50;;;;;;;25.00;14.30;;;;;;;;;;5054877;28;20172;-77
2021/03/25 02:31:17;;;;;;;20.23;12.00;;;;;;;;;;5055183;28;20178;-77
2021/03/25 02:33:46;;;;;;;21.48;11.80;;;;;;;;;;5055028;28;20202;-77
2021/03/25 02:36:13;;;;;;;18.98;12.30;;;;;;;;;;5053945;28;20198;-78
2021/03/25 02:38:59;;;;;;;22.90;12.10;;;;;;;;;;5054499;28;20178;-78
2021/03/25 02:41:28;;;;;;;24.48;13.20;;;;;;;;;;5055053;28;20180;-78
2021/03/25 02:43:57;;;;;;;24.65;13.90;;;;;;;;;;5054913;28;20256;-78
2021/03/25 02:46:25;;;;;;;28.38;13.10;;;;;;;;;;5054208;28;20192;-78
2021/03/25 02:48:53;;;;;;;21.10;13.43;;;;;;;;;;5054761;28;20176;-78
2021/03/25 02:51:25;;;;;;;23.23;14.95;;;;;;;;;;5054953;28;20221;-77
2021/03/25 02:53:51;;;;;;;25.20;13.98;;;;;;;;;;5054886;28;20211;-77
2021/03/25 02:56:43;;;;;;;23.40;13.20;;;;;;;;;;5054375;28;20219;-78
2021/03/25 02:59:12;;;;;;;22.20;11.90;;;;;;;;;;5016623;28;20190;-78
2021/03/25 03:01:40;;;;;;;32.42;14.35;;;;;;;;;;5054652;28;20167;-77
2021/03/25 03:04:09;;;;;;;22.20;12.00;;;;;;;;;;5054400;28;20461;-77
2021/03/25 03:06:42;;;;;;;24.80;12.68;;;;;;;;;;5054102;28;20559;-77
2021/03/25 03:09:10;;;;;;;22.45;12.05;;;;;;;;;;5054411;28;20177;-77
2021/03/25 03:11:39;;;;;;;20.98;11.20;;;;;;;;;;5036221;28;20177;-76
2021/03/25 03:14:07;;;;;;;24.50;12.90;;;;;;;;;;5054138;28;20197;-77
2021/03/25 03:16:45;;;;;;;22.90;11.82;;;;;;;;;;5053963;28;20328;-77
2021/03/25 03:19:14;;;;;;;18.65;11.35;;;;;;;;;;5054281;28;20532;-77
2021/03/25 03:21:47;;;;;;;25.70;13.23;;;;;;;;;;5054163;28;20166;-77
2021/03/25 03:24:13;;;;;;;23.63;12.35;;;;;;;;;;5054144;28;20193;-78
2021/03/25 03:26:46;;;;;;;24.08;12.82;;;;;;;;;;5053701;28;20198;-78
2021/03/25 03:29:13;;;;;;;29.45;14.43;;;;;;;;;;5054086;28;20188;-78
2021/03/25 03:31:46;;;;;;;20.52;12.77;;;;;;;;;;5053955;28;20176;-78
2021/03/25 03:34:16;;;;;;;22.63;13.25;;;;;;;;;;5053889;28;20185;-78
2021/03/25 03:36:43;;;;;;;25.92;14.68;;;;;;;;;;5035463;28;20215;-77
2021/03/25 03:39:11;;;;;;;27.35;13.60;;;;;;;;;;5053771;28;20227;-78
2021/03/25 03:41:44;;;;;;;22.55;13.85;;;;;;;;;;5053798;28;20205;-78
2021/03/25 03:44:12;;;;;;;26.50;15.70;;;;;;;;;;5053578;28;20204;-77
2021/03/25 03:46:38;;;;;;;29.80;15.23;;;;;;;;;;5053235;28;20189;-78
2021/03/25 03:49:12;;;;;;;24.58;14.25;;;;;;;;;;5053111;28;20513;-78
2021/03/25 03:51:49;;;;;;;23.40;13.65;;;;;;;;;;5053545;28;20257;-78
2021/03/25 03:54:15;;;;;;;23.83;13.60;;;;;;;;;;5053629;28;20219;-77
2021/03/25 03:56:48;;;;;;;27.95;14.63;;;;;;;;;;5035210;28;20284;-77
2021/03/25 03:59:31;;;;;;;26.63;14.35;;;;;;;;;;5053106;28;20177;-78
2021/03/25 04:02:14;;;;;;;28.08;14.35;;;;;;;;;;5053476;28;20174;-77
2021/03/25 04:04:43;;;;;;;25.58;13.30;;;;;;;;;;5035050;28;20243;-77
2021/03/25 04:07:13;;;;;;;24.13;13.02;;;;;;;;;;5053222;28;20167;-78
2021/03/25 04:09:46;;;;;;;23.45;13.30;;;;;;;;;;5053225;28;20176;-78
2021/03/25 04:12:14;;;;;;;18.23;11.88;;;;;;;;;;5053298;28;20544;-78
2021/03/25 04:14:52;;;;;;;25.35;13.65;;;;;;;;;;5034793;28;20294;-78
2021/03/25 04:17:27;;;;;;;22.92;13.00;;;;;;;;;;5053092;28;20184;-77
2021/03/25 04:19:55;;;;;;;22.58;13.00;;;;;;;;;;5053089;28;20182;-77
2021/03/25 04:22:22;;;;;;;23.73;12.98;;;;;;;;;;5053038;28;20181;-77
2021/03/25 04:24:58;;;;;;;25.83;13.10;;;;;;;;;;5034684;28;20201;-78
2021/03/25 04:27:26;;;;;;;27.40;13.52;;;;;;;;;;5052911;28;20512;-77
2021/03/25 04:29:58;;;;;;;20.92;11.18;;;;;;;;;;5052703;28;20183;-77
2021/03/25 04:32:25;;;;;;;24.70;13.60;;;;;;;;;;5053018;28;20240;-78
2021/03/25 04:34:51;;;;;;;24.48;13.60;;;;;;;;;;5034500;28;20182;-77
2021/03/25 04:37:17;;;;;;;25.38;13.18;;;;;;;;;;5052662;28;20715;-78
2021/03/25 04:39:44;;;;;;;23.55;13.50;;;;;;;;;;5052870;28;20210;-77
2021/03/25 04:42:10;;;;;;;23.52;12.90;;;;;;;;;;5052844;28;20681;-78
2021/03/25 04:44:42;;;;;;;23.13;13.07;;;;;;;;;;5034273;28;20205;-77
2021/03/25 04:47:17;;;;;;;26.27;14.10;;;;;;;;;;5052704;28;20170;-77
2021/03/25 04:49:55;;;;;;;23.17;13.75;;;;;;;;;;5052586;28;20169;-77
2021/03/25 04:52:25;;;;;;;25.65;13.15;;;;;;;;;;5052846;28;20593;-77
2021/03/25 04:54:51;;;;;;;21.17;13.18;;;;;;;;;;5034102;28;20235;-77
2021/03/25 04:57:20;;;;;;;22.42;12.55;;;;;;;;;;5034569;28;20665;-76
2021/03/25 04:59:47;;;;;;;24.83;12.43;;;;;;;;;;5051956;28;20174;-77
2021/03/25 05:02:13;;;;;;;25.80;13.38;;;;;;;;;;5052544;28;20183;-76
2021/03/25 05:04:47;;;;;;;24.27;13.18;;;;;;;;;;5052142;28;20206;-77
2021/03/25 05:07:15;;;;;;;20.40;12.18;;;;;;;;;;5052493;28;20170;-77
2021/03/25 05:09:41;;;;;;;25.75;11.65;;;;;;;;;;5052242;28;20286;-78
2021/03/25 05:12:07;;;;;;;24.27;12.50;;;;;;;;;;5052391;28;20212;-77
2021/03/25 05:14:33;;;;;;;16.75;12.15;;;;;;;;;;5033795;28;20452;-77
2021/03/25 05:17:12;;;;;;;19.70;12.93;;;;;;;;;;5034314;28;20201;-78
2021/03/25 05:19:44;;;;;;;23.67;13.35;;;;;;;;;;5052212;28;20190;-78
2021/03/25 05:22:09;;;;;;;24.20;12.90;;;;;;;;;;5052865;28;20180;-77
2021/03/25 05:24:48;;;;;;;23.00;12.57;;;;;;;;;;5052507;28;20194;-77
2021/03/25 05:27:14;;;;;;;23.17;12.20;;;;;;;;;;5052731;28;20404;-78
2021/03/25 05:29:41;;;;;;;23.10;12.50;;;;;;;;;;5052489;28;20173;-78
2021/03/25 05:32:08;;;;;;;28.48;14.15;;;;;;;;;;5052440;28;20412;-78
2021/03/25 05:34:36;;;;;;;22.95;13.20;;;;;;;;;;5052189;28;20258;-77
2021/03/25 05:37:03;;;;;;;23.52;14.23;;;;;;;;;;5052155;28;20281;-78
2021/03/25 05:39:32;;;;;;;33.38;14.93;;;;;;;;;;5034160;28;20209;-77
2021/03/25 05:42:30;;;;;;;35.90;15.82;;;;;;;;;;5052064;28;20180;-77
2021/03/25 05:45:19;;;;;;;31.55;14.43;;;;;;;;;;4980475;28;20213;-78
2021/03/25 05:48:04;;;;;;;31.77;14.50;;;;;;;;;;5051934;28;20177;-77
2021/03/25 05:50:29;;;;;;;30.52;14.95;;;;;;;;;;5051927;28;20184;-77
2021/03/25 05:53:07;;;;;;;33.20;17.25;;;;;;;;;;5052100;28;20539;-77
2021/03/25 05:55:48;;;;;;;54.20;18.70;;;;;;;;;;5051593;28;20205;-77
2021/03/25 05:58:17;;;;;;;38.80;19.80;;;;;;;;;;5052096;28;20162;-78
2021/03/25 06:00:48;;;;;;;46.40;22.75;;;;;;;;;;5051906;28;20173;-78
2021/03/25 06:03:16;;;;;;;38.53;23.25;;;;;;;;;;5052159;28;20546;-77
2021/03/25 06:05:43;;;;;;;52.42;26.95;;;;;;;;;;5051418;28;20213;-78
2021/03/25 06:08:09;;;;;;;37.63;22.77;;;;;;;;;;5034149;28;20196;-78
2021/03/25 06:10:43;;;;;;;45.33;22.48;;;;;;;;;;5052046;28;20203;-78
2021/03/25 06:13:17;;;;;;;45.92;22.80;;;;;;;;;;5054959;28;20181;-77
2021/03/25 06:16:01;;;;;;;46.33;21.80;;;;;;;;;;5055205;28;20257;-78
2021/03/25 06:18:27;;;;;;;39.05;21.60;;;;;;;;;;5055385;28;20180;-78
2021/03/25 06:20:53;;;;;;;41.03;21.57;;;;;;;;;;5055478;28;20176;-78
2021/03/25 06:23:25;;;;;;;44.10;24.67;;;;;;;;;;5055148;28;20408;-78
2021/03/25 06:26:02;;;;;;;44.08;22.60;;;;;;;;;;5054505;28;20471;-78
2021/03/25 06:28:32;;;;;;;57.22;26.25;;;;;;;;;;5037329;28;20172;-78
2021/03/25 06:31:07;;;;;;;38.97;23.95;;;;;;;;;;5055227;28;20531;-77
2021/03/25 06:33:45;;;;;;;47.55;21.75;;;;;;;;;;5054960;28;20255;-78
2021/03/25 06:36:12;;;;;;;42.08;23.75;;;;;;;;;;5036730;28;20540;-79
2021/03/25 06:38:51;;;;;;;44.67;23.40;;;;;;;;;;5054966;28;20584;-77
2021/03/25 06:41:22;;;;;;;39.05;24.90;;;;;;;;;;5054718;28;20180;-78
2021/03/25 06:43:48;;;;;;;57.03;26.90;;;;;;;;;;5049711;28;20531;-77
2021/03/25 06:46:20;;;;;;;49.20;26.10;;;;;;;;;;5054260;28;20231;-77
2021/03/25 06:48:49;;;;;;;52.63;29.15;;;;;;;;;;5054740;28;20441;-78
2021/03/25 06:51:23;;;;;;;49.65;27.80;;;;;;;;;;5054866;28;20203;-78
2021/03/25 06:53:51;;;;;;;57.17;30.80;;;;;;;;;;5054743;28;20547;-78
2021/03/25 06:56:18;;;;;;;55.45;29.38;;;;;;;;;;5053978;28;20576;-79
2021/03/25 06:58:46;;;;;;;66.28;31.50;;;;;;;;;;5054745;28;20168;-79
2021/03/25 07:01:15;;;;;;;56.30;29.80;;;;;;;;;;5036719;28;20192;-78
2021/03/25 07:03:41;;;;;;;64.03;33.03;;;;;;;;;;5054589;28;20182;-77
2021/03/25 07:06:07;;;;;;;60.60;32.97;;;;;;;;;;5054094;28;20225;-78
2021/03/25 07:08:33;;;;;;;55.90;31.75;;;;;;;;;;5054439;28;20197;-78
2021/03/25 07:11:04;;;;;;;61.33;33.63;;;;;;;;;;5054347;28;20626;-78
2021/03/25 07:13:32;;;;;;;62.05;34.83;;;;;;;;;;5054403;28;20181;-79
2021/03/25 07:15:58;;;;;;;59.88;33.40;;;;;;;;;;5054029;28;20604;-79
2021/03/25 07:18:29;;;;;;;57.40;33.70;;;;;;;;;;5054086;28;20519;-78
2021/03/25 07:21:14;;;;;;;60.13;35.55;;;;;;;;;;5054266;28;20181;-79
2021/03/25 07:23:44;;;;;;;59.00;32.10;;;;;;;;;;5053562;28;20629;-78
2021/03/25 07:26:18;;;;;;;71.20;36.15;;;;;;;;;;5053731;28;20209;-79
2021/03/25 07:28:56;;;;;;;55.90;36.38;;;;;;;;;;5036161;28;20176;-79
2021/03/25 07:31:27;;;;;;;61.85;35.05;;;;;;;;;;5053852;28;20223;-78
2021/03/25 07:33:54;;;;;;;64.70;35.17;;;;;;;;;;5054006;28;20170;-79
2021/03/25 07:36:20;;;;;;;58.70;33.15;;;;;;;;;;5053589;28;20208;-78
2021/03/25 07:38:46;;;;;;;62.33;34.35;;;;;;;;;;5053783;28;20189;-79
2021/03/25 07:41:18;;;;;;;57.35;32.55;;;;;;;;;;5036151;28;20189;-79
2021/03/25 07:43:56;;;;;;;60.35;32.70;;;;;;;;;;5053799;28;20623;-79
2021/03/25 07:46:23;;;;;;;58.92;33.78;;;;;;;;;;5035455;28;20302;-79
2021/03/25 07:48:56;;;;;;;64.70;33.88;;;;;;;;;;5053556;28;20573;-78
2021/03/25 07:51:22;;;;;;;53.33;31.60;;;;;;;;;;5053693;28;20173;-79
2021/03/25 07:53:49;;;;;;;56.97;32.67;;;;;;;;;;5053406;28;20539;-78
2021/03/25 07:56:19;;;;;;;68.22;36.20;;;;;;;;;;5052846;28;20428;-78
2021/03/25 07:58:46;;;;;;;60.75;33.55;;;;;;;;;;5053299;28;20173;-79
2021/03/25 08:01:16;;;;;;;64.00;35.00;;;;;;;;;;5053491;28;20183;-76
2021/03/25 08:03:46;;;;;;;53.50;31.55;;;;;;;;;;5053456;28;20587;-78
2021/03/25 08:06:17;;;;;;;52.60;33.00;;;;;;;;;;5034896;28;20528;-79
2021/03/25 08:08:44;;;;;;;63.60;33.20;;;;;;;;;;5052979;28;20176;-78
2021/03/25 08:11:15;;;;;;;58.17;33.83;;;;;;;;;;5052807;28;20261;-79
2021/03/25 08:13:52;;;;;;;55.08;34.03;;;;;;;;;;5052003;28;20264;-78
2021/03/25 08:16:18;;;;;;;59.33;34.45;;;;;;;;;;5033257;28;20208;-78
2021/03/25 08:18:47;;;;;;;51.65;32.70;;;;;;;;;;5034957;28;20182;-79
2021/03/25 08:21:32;;;;;;;61.55;33.13;;;;;;;;;;5053121;28;20173;-79
2021/03/25 08:24:16;;;;;;;50.38;32.53;;;;;;;;;;5053115;28;20256;-79
2021/03/25 08:26:58;;;;;;;52.53;32.00;;;;;;;;;;5052735;28;20195;-78
2021/03/25 08:29:36;;;;;;;52.65;32.65;;;;;;;;;;5052928;28;20169;-78
2021/03/25 08:32:02;;;;;;;60.92;32.10;;;;;;;;;;5052943;28;20196;-78
2021/03/25 08:34:43;;;;;;;48.67;31.27;;;;;;;;;;5052003;28;20174;-78
2021/03/25 08:37:09;;;;;;;55.83;31.55;;;;;;;;;;5052749;28;20419;-78
2021/03/25 08:39:38;;;;;;;52.50;33.07;;;;;;;;;;5052726;28;20571;-78
2021/03/25 08:42:13;;;;;;;55.63;34.33;;;;;;;;;;5052782;28;20435;-78
2021/03/25 08:44:42;;;;;;;47.53;32.30;;;;;;;;;;5052114;28;20456;-78
2021/03/25 08:47:20;;;;;;;54.17;32.80;;;;;;;;;;5052504;28;20442;-78
2021/03/25 08:49:58;;;;;;;50.33;33.90;;;;;;;;;;5052540;28;20483;-78
2021/03/25 08:52:25;;;;;;;55.90;34.20;;;;;;;;;;5054456;28;20400;-78
2021/03/25 08:55:02;;;;;;;52.47;32.47;;;;;;;;;;5052202;28;20754;-79
2021/03/25 08:57:29;;;;;;;47.53;33.00;;;;;;;;;;5052584;28;20450;-78
2021/03/25 09:00:14;;;;;;;59.93;33.43;;;;;;;;;;5052418;28;20840;-78
2021/03/25 09:02:54;;;;;;;59.10;32.97;;;;;;;;;;5052626;28;20491;-79
2021/03/25 09:05:23;;;;;;;54.87;33.00;;;;;;;;;;5052022;28;20529;-79
2021/03/25 09:07:50;;;;;;;46.23;33.23;;;;;;;;;;5052300;28;20788;-78
2021/03/25 09:10:36;;;;;;;58.67;33.97;;;;;;;;;;5052639;28;20809;-78
2021/03/25 09:13:03;;;;;;;53.43;37.10;;;;;;;;;;5021309;28;20395;-77
2021/03/25 09:15:29;;;;;;;56.10;33.43;;;;;;;;;;5052198;28;20434;-77
2021/03/25 09:18:06;;;;;;;50.67;34.40;;;;;;;;;;5052483;28;20385;-77
2021/03/25 09:20:35;;;;;;;49.83;33.40;;;;;;;;;;5052230;28;20477;-76
2021/03/25 09:23:20;;;;;;;52.57;34.30;;;;;;;;;;5052395;28;20466;-77
2021/03/25 09:25:46;;;;;;;51.43;32.33;;;;;;;;;;5033897;28;20825;-77
2021/03/25 09:28:19;;;;;;;64.60;34.70;;;;;;;;;;5052200;28;20390;-78
2021/03/25 09:30:45;;;;;;;49.10;30.97;;;;;;;;;;5052164;28;20390;-78
2021/03/25 09:33:30;;;;;;;44.50;29.60;;;;;;;;;;5052166;28;20966;-78
2021/03/25 09:35:56;;;;;;;42.73;27.40;;;;;;;;;;5051871;28;20485;-78
2021/03/25 09:38:29;;;;;;;44.07;28.07;;;;;;;;;;5052269;28;20953;-78
2021/03/25 09:40:55;;;;;;;37.63;23.00;;;;;;;;;;5052130;28;20458;-78
2021/03/25 09:43:27;;;;;;;40.60;26.73;;;;;;;;;;5052002;28;20411;-78
2021/03/25 09:45:57;;;;;;;43.90;26.57;;;;;;;;;;5052442;28;20970;-78
2021/03/25 09:48:28;;;;;;;44.73;27.67;;;;;;;;;;5038060;28;20498;-78
2021/03/25 09:51:03;;;;;;;37.67;25.93;;;;;;;;;;5055692;28;20400;-78
2021/03/25 09:53:29;;;;;;;43.10;25.30;;;;;;;;;;5055732;28;20453;-78
2021/03/25 09:56:01;;;;;;;36.30;25.40;;;;;;;;;;5055387;28;20406;-78
2021/03/25 09:58:39;;;;;;;43.60;26.10;;;;;;;;;;5055728;28;20481;-77
2021/03/25 10:01:05;;;;;;;39.30;23.43;;;;;;;;;;5055733;28;20390;-78
2021/03/25 10:03:50;;;;;;;41.17;25.20;;;;;;;;;;5055621;28;20390;-78
2021/03/25 10:06:34;;;;;;;39.53;24.43;;;;;;;;;;5055128;28;20460;-77
2021/03/25 10:09:00;;;;;;;42.73;25.43;;;;;;;;;;5055723;28;20407;-77
2021/03/25 10:11:45;;;;;;;39.23;26.67;;;;;;;;;;5055277;28;20404;-77
2021/03/25 10:14:29;;;;;;;40.67;27.40;;;;;;;;;;5055252;28;20459;-77
2021/03/25 10:16:55;;;;;;;42.77;25.77;;;;;;;;;;5055285;28;20827;-77
2021/03/25 10:19:39;;;;;;;37.40;25.73;;;;;;;;;;5055103;28;20414;-77
2021/03/25 10:22:16;;;;;;;37.87;26.50;;;;;;;;;;5055565;28;20393;-78
2021/03/25 10:24:44;;;;;;;39.60;24.67;;;;;;;;;;5054825;28;20425;-77
2021/03/25 10:27:30;;;;;;;41.60;27.77;;;;;;;;;;5055255;28;20412;-77
2021/03/25 10:29:56;;;;;;;42.93;24.57;;;;;;;;;;5055060;28;20387;-78
2021/03/25 10:32:25;;;;;;;44.37;27.87;;;;;;;;;;5055117;28;20441;-77
2021/03/25 10:34:54;;;;;;;42.80;28.87;;;;;;;;;;5054744;28;20399;-77
2021/03/25 10:37:29;;;;;;;40.23;25.90;;;;;;;;;;5036755;28;21065;-76
2021/03/25 10:39:59;;;;;;;44.83;28.43;;;;;;;;;;5054832;28;20386;-77
2021/03/25 10:42:36;;;;;;;41.27;28.07;;;;;;;;;;5053280;28;20412;-77
2021/03/25 10:45:14;;;;;;;39.40;27.50;;;;;;;;;;5054179;28;20430;-77
2021/03/25 10:47:45;;;;;;;42.90;25.30;;;;;;;;;;5054596;28;20451;-76
2021/03/25 10:50:18;;;;;;;40.17;26.53;;;;;;;;;;5054491;28;20391;-77
2021/03/25 10:52:45;;;;;;;44.77;28.97;;;;;;;;;;5054706;28;20379;-78
2021/03/25 10:55:20;;;;;;;38.47;24.97;;;;;;;;;;5054221;28;20493;-77
2021/03/25 10:57:50;;;;;;;44.57;28.87;;;;;;;;;;5053624;28;20446;-76
2021/03/25 11:00:19;;;;;;;38.93;24.20;;;;;;;;;;5054668;28;20412;-77
2021/03/25 11:02:46;;;;;;;35.07;24.00;;;;;;;;;;5054631;28;20378;-77
2021/03/25 11:05:23;;;;;;;34.87;23.53;;;;;;;;;;5054167;28;20460;-76
2021/03/25 11:07:50;;;;;;;36.87;23.30;;;;;;;;;;5054332;28;20407;-78
2021/03/25 11:10:19;;;;;;;37.60;24.07;;;;;;;;;;5054362;28;20919;-77
2021/03/25 11:12:46;;;;;;;30.03;21.00;;;;;;;;;;5054310;28;20466;-77
2021/03/25 11:15:20;;;;;;;33.63;21.83;;;;;;;;;;5053778;28;20428;-78
2021/03/25 11:17:47;;;;;;;31.97;19.30;;;;;;;;;;5054201;28;20389;-77
2021/03/25 11:20:18;;;;;;;25.93;19.33;;;;;;;;;;5054117;28;20821;-77
2021/03/25 11:22:44;;;;;;;25.80;18.50;;;;;;;;;;5054126;28;20404;-77
2021/03/25 11:25:14;;;;;;;31.70;18.73;;;;;;;;;;5053529;28;20519;-78
2021/03/25 11:27:40;;;;;;;24.40;18.53;;;;;;;;;;5054356;28;20404;-78
2021/03/25 11:30:09;;;;;;;31.97;19.30;;;;;;;;;;5054110;28;20419;-78
2021/03/25 11:32:36;;;;;;;24.40;17.20;;;;;;;;;;5053896;28;20410;-78
2021/03/25 11:35:20;;;;;;;26.57;18.20;;;;;;;;;;5053476;28;20408;-77
2021/03/25 11:37:46;;;;;;;24.97;17.77;;;;;;;;;;5053911;28;20408;-78
2021/03/25 11:40:35;;;;;;;26.67;15.57;;;;;;;;;;5053828;28;20457;-77
2021/03/25 11:43:10;;;;;;;22.47;16.93;;;;;;;;;;5043362;28;20420;-78
2021/03/25 11:45:41;;;;;;;24.57;15.80;;;;;;;;;;5053042;28;20471;-77
2021/03/25 11:48:17;;;;;;;21.63;14.80;;;;;;;;;;5053605;28;20422;-77
2021/03/25 11:50:45;;;;;;;20.83;14.17;;;;;;;;;;5035736;28;20389;-77
2021/03/25 11:53:25;;;;;;;23.33;13.93;;;;;;;;;;5053625;28;20412;-77
2021/03/25 11:55:52;;;;;;;18.60;15.00;;;;;;;;;;5053119;28;20967;-77
2021/03/25 11:58:23;;;;;;;28.60;16.70;;;;;;;;;;5053236;28;20435;-78
2021/03/25 12:01:07;;;;;;;23.30;15.03;;;;;;;;;;5035592;28;20473;-78
2021/03/25 12:03:55;;;;;;;24.23;13.97;;;;;;;;;;5053590;28;20378;-77
2021/03/25 12:06:31;;;;;;;18.17;12.40;;;;;;;;;;5034773;28;20558;-77
2021/03/25 12:09:16;;;;;;;16.87;12.63;;;;;;;;;;5049653;28;20419;-78
2021/03/25 12:11:45;;;;;;;19.30;12.23;;;;;;;;;;5034327;28;20766;-77
2021/03/25 12:14:11;;;;;;;20.60;11.70;;;;;;;;;;5052573;28;20964;-77
2021/03/25 12:16:38;;;;;;;16.93;11.33;;;;;;;;;;5052186;28;20924;-76
2021/03/25 12:19:05;;;;;;;18.53;11.50;;;;;;;;;;5052735;28;20434;-78
2021/03/25 12:21:31;;;;;;;20.57;12.20;;;;;;;;;;5052780;28;20747;-78
2021/03/25 12:23:58;;;;;;;24.60;11.80;;;;;;;;;;5053018;28;20416;-78
2021/03/25 12:26:25;;;;;;;22.07;12.77;;;;;;;;;;5052346;28;20453;-78
2021/03/25 12:28:53;;;;;;;26.10;13.40;;;;;;;;;;5035462;28;20414;-78
2021/03/25 12:31:20;;;;;;;19.57;11.83;;;;;;;;;;5053030;28;20382;-78
2021/03/25 12:33:46;;;;;;;19.97;12.77;;;;;;;;;;5052965;28;20738;-78
2021/03/25 12:36:13;;;;;;;19.37;13.27;;;;;;;;;;5052485;28;20406;-78
2021/03/25 12:38:39;;;;;;;24.80;13.50;;;;;;;;;;5034813;28;20977;-78
2021/03/25 12:41:06;;;;;;;16.37;12.43;;;;;;;;;;5052680;28;20449;-78
2021/03/25 12:43:33;;;;;;;20.50;11.87;;;;;;;;;;5052804;28;20764;-78
2021/03/25 12:46:06;;;;;;;15.73;12.17;;;;;;;;;;5052210;28;20487;-77
2021/03/25 12:48:34;;;;;;;17.73;11.53;;;;;;;;;;5052558;28;20391;-78
2021/03/25 12:51:00;;;;;;;16.80;12.63;;;;;;;;;;5054924;28;20441;-78
2021/03/25 12:53:28;;;;;;;23.17;13.97;;;;;;;;;;5053699;28;20382;-77
2021/03/25 12:55:55;;;;;;;19.67;12.97;;;;;;;;;;5049003;28;20511;-77
2021/03/25 12:58:22;;;;;;;18.77;13.40;;;;;;;;;;5052114;28;20444;-77
2021/03/25 13:00:49;;;;;;;18.10;14.33;;;;;;;;;;5052114;28;20390;-78
2021/03/25 13:03:15;;;;;;;22.90;12.97;;;;;;;;;;5049511;28;20425;-78
2021/03/25 13:05:41;;;;;;;16.57;11.53;;;;;;;;;;5051587;28;20457;-77
2021/03/25 13:08:07;;;;;;;23.10;13.70;;;;;;;;;;5052256;28;20912;-77
2021/03/25 13:10:34;;;;;;;18.23;12.20;;;;;;;;;;5051737;28;20475;-78
2021/03/25 13:13:02;;;;;;;16.30;11.83;;;;;;;;;;5052111;28;20427;-77
2021/03/25 13:15:28;;;;;;;16.20;11.23;;;;;;;;;;5051455;28;20832;-77
2021/03/25 13:17:54;;;;;;;20.83;11.30;;;;;;;;;;5051917;28;20378;-77
2021/03/25 13:20:22;;;;;;;19.30;11.83;;;;;;;;;;5033861;28;20722;-77
2021/03/25 13:22:48;;;;;;;14.67;10.13;;;;;;;;;;5037466;28;20439;-77
2021/03/25 13:25:24;;;;;;;18.30;10.60;;;;;;;;;;5055354;28;20463;-78
2021/03/25 13:27:50;;;;;;;18.33;10.53;;;;;;;;;;5037957;28;20423;-78
2021/03/25 13:30:17;;;;;;;16.63;11.40;;;;;;;;;;5055818;28;20439;-77
2021/03/25 13:32:44;;;;;;;19.73;11.93;;;;;;;;;;5055735;28;20415;-77
2021/03/25 13:35:11;;;;;;;15.53;12.30;;;;;;;;;;5055170;28;20917;-77
2021/03/25 13:37:37;;;;;;;15.20;10.87;;;;;;;;;;5055933;28;20453;-79
2021/03/25 13:40:05;;;;;;;15.43;10.80;;;;;;;;;;5055450;28;20416;-79
2021/03/25 13:42:50;;;;;;;16.77;12.40;;;;;;;;;;5055987;28;20490;-79
2021/03/25 13:45:16;;;;;;;16.60;13.47;;;;;;;;;;5055298;28;20957;-78
2021/03/25 13:47:42;;;;;;;18.50;13.10;;;;;;;;;;5055902;28;20748;-78
2021/03/25 13:50:10;;;;;;;15.10;12.10;;;;;;;;;;5055937;28;20879;-78
2021/03/25 13:52:36;;;;;;;14.73;12.00;;;;;;;;;;5055754;28;20441;-79
2021/03/25 13:55:04;;;;;;;15.00;11.23;;;;;;;;;;5055387;28;20452;-78
2021/03/25 13:57:30;;;;;;;13.67;11.00;;;;;;;;;;5055599;28;20465;-78
2021/03/25 13:59:56;;;;;;;13.57;10.70;;;;;;;;;;5055783;28;20423;-78
2021/03/25 14:02:22;;;;;;;13.23;10.40;;;;;;;;;;5055738;28;20391;-77
2021/03/25 14:04:48;;;;;;;13.77;9.40;;;;;;;;;;5055342;28;20460;-78
2021/03/25 14:07:14;;;;;;;16.33;10.37;;;;;;;;;;5055474;28;20489;-77
2021/03/25 14:09:40;;;;;;;11.53;9.37;;;;;;;;;;5037389;28;20416;-76
2021/03/25 14:12:07;;;;;;;15.87;10.03;;;;;;;;;;5055532;28;20784;-78
2021/03/25 14:14:33;;;;;;;12.93;10.23;;;;;;;;;;5053602;28;20769;-77
2021/03/25 14:16:59;;;;;;;13.60;10.67;;;;;;;;;;5053692;28;20406;-76
2021/03/25 14:19:25;;;;;;;13.33;10.33;;;;;;;;;;5053725;28;20395;-75
2021/03/25 14:21:54;;;;;;;12.30;9.60;;;;;;;;;;5053867;28;20394;-74
2021/03/25 14:24:20;;;;;;;11.53;10.03;;;;;;;;;;5053800;28;20419;-78
2021/03/25 14:26:46;;;;;;;18.43;12.07;;;;;;;;;;5053717;28;20436;-79
2021/03/25 14:29:12;;;;;;;14.17;10.70;;;;;;;;;;5054096;28;20441;-76
2021/03/25 14:31:38;;;;;;;13.20;11.67;;;;;;;;;;5053833;28;20404;-76
2021/03/25 14:34:04;;;;;;;14.50;11.20;;;;;;;;;;5054020;28;20407;-77
2021/03/25 14:36:30;;;;;;;11.97;9.63;;;;;;;;;;5053432;28;20511;-77